sensor_id;sensor_type;location;lat;lon;timestamp;P1;durP1;ratioP1;P2;durP2;ratioP2
72464;SDS011;60471;52.150;4.508;2023-08-06T00:01:27;23.08;;;13.80;;
72464;SDS011;60471;52.150;4.508;2023-08-06T00:03:53;21.90;;;15.32;;
72464;SDS011;60471;52.150;4.508;2023-08-06T00:06:19;19.23;;;13.77;;
72464;SDS011;60471;52.150;4.508;2023-08-06T00:08:45;20.50;;;14.30;;
72464;SDS011;60471;52.150;4.508;2023-08-06T00:11:12;17.63;;;12.85;;
72464;SDS011;60471;52.150;4.508;2023-08-06T00:13:39;18.00;;;12.23;;
72464;SDS011;60471;52.150;4.508;2023-08-06T00:16:11;20.90;;;13.20;;
72464;SDS011;60471;52.150;4.508;2023-08-06T00:18:39;20.92;;;13.75;;
72464;SDS011;60471;52.150;4.508;2023-08-06T00:21:06;16.20;;;11.63;;
72464;SDS011;60471;52.150;4.508;2023-08-06T00:23:32;15.98;;;11.23;;
72464;SDS011;60471;52.150;4.508;2023-08-06T00:25:58;20.42;;;12.50;;
72464;SDS011;60471;52.150;4.508;2023-08-06T00:28:25;14.30;;;10.00;;
72464;SDS011;60471;52.150;4.508;2023-08-06T00:30:54;13.80;;;9.73;;
72464;SDS011;60471;52.150;4.508;2023-08-06T00:33:22;16.35;;;11.07;;
72464;SDS011;60471;52.150;4.508;2023-08-06T00:35:48;14.95;;;10.02;;
72464;SDS011;60471;52.150;4.508;2023-08-06T00:38:15;14.20;;;9.40;;
72464;SDS011;60471;52.150;4.508;2023-08-06T00:40:41;15.43;;;9.88;;
72464;SDS011;60471;52.150;4.508;2023-08-06T00:43:07;18.38;;;11.32;;
72464;SDS011;60471;52.150;4.508;2023-08-06T00:45:35;17.67;;;11.93;;
72464;SDS011;60471;52.150;4.508;2023-08-06T00:48:03;15.35;;;10.27;;
72464;SDS011;60471;52.150;4.508;2023-08-06T00:50:32;18.88;;;12.15;;
72464;SDS011;60471;52.150;4.508;2023-08-06T00:52:59;15.32;;;10.65;;
72464;SDS011;60471;52.150;4.508;2023-08-06T00:55:26;16.08;;;11.48;;
72464;SDS011;60471;52.150;4.508;2023-08-06T00:57:53;19.80;;;14.43;;
72464;SDS011;60471;52.150;4.508;2023-08-06T01:00:22;21.75;;;12.98;;
72464;SDS011;60471;52.150;4.508;2023-08-06T01:02:49;18.42;;;13.30;;
72464;SDS011;60471;52.150;4.508;2023-08-06T01:05:16;19.20;;;13.35;;
72464;SDS011;60471;52.150;4.508;2023-08-06T01:13:45;19.42;;;13.93;;
72464;SDS011;60471;52.150;4.508;2023-08-06T01:16:18;23.40;;;14.57;;
72464;SDS011;60471;52.150;4.508;2023-08-06T01:18:47;19.73;;;13.50;;
72464;SDS011;60471;52.150;4.508;2023-08-06T01:21:16;20.10;;;13.65;;
72464;SDS011;60471;52.150;4.508;2023-08-06T01:23:44;19.02;;;12.45;;
72464;SDS011;60471;52.150;4.508;2023-08-06T01:29:25;19.98;;;13.57;;
72464;SDS011;60471;52.150;4.508;2023-08-06T01:31:57;19.20;;;12.93;;
72464;SDS011;60471;52.150;4.508;2023-08-06T01:34:25;22.13;;;12.23;;
72464;SDS011;60471;52.150;4.508;2023-08-06T01:36:56;16.05;;;10.68;;
72464;SDS011;60471;52.150;4.508;2023-08-06T01:39:26;16.77;;;10.98;;
72464;SDS011;60471;52.150;4.508;2023-08-06T01:41:53;13.93;;;9.20;;
72464;SDS011;60471;52.150;4.508;2023-08-06T01:44:19;15.65;;;9.95;;
72464;SDS011;60471;52.150;4.508;2023-08-06T01:46:45;15.73;;;10.80;;
72464;SDS011;60471;52.150;4.508;2023-08-06T01:49:11;14.98;;;10.00;;
72464;SDS011;60471;52.150;4.508;2023-08-06T01:51:38;17.52;;;11.20;;
72464;SDS011;60471;52.150;4.508;2023-08-06T01:54:04;17.52;;;11.82;;
72464;SDS011;60471;52.150;4.508;2023-08-06T01:56:30;22.08;;;12.52;;
72464;SDS011;60471;52.150;4.508;2023-08-06T01:58:56;19.60;;;12.43;;
72464;SDS011;60471;52.150;4.508;2023-08-06T02:01:23;25.13;;;13.98;;
72464;SDS011;60471;52.150;4.508;2023-08-06T02:03:49;15.68;;;10.95;;
72464;SDS011;60471;52.150;4.508;2023-08-06T02:06:15;19.02;;;12.35;;
72464;SDS011;60471;52.150;4.508;2023-08-06T02:08:42;17.40;;;11.48;;
72464;SDS011;60471;52.150;4.508;2023-08-06T02:11:08;21.17;;;12.65;;
72464;SDS011;60471;52.150;4.508;2023-08-06T02:13:34;18.83;;;12.00;;
72464;SDS011;60471;52.150;4.508;2023-08-06T02:16:00;15.57;;;10.48;;
72464;SDS011;60471;52.150;4.508;2023-08-06T02:18:27;24.35;;;12.43;;
72464;SDS011;60471;52.150;4.508;2023-08-06T02:20:56;17.58;;;11.18;;
72464;SDS011;60471;52.150;4.508;2023-08-06T02:23:26;16.30;;;10.95;;
72464;SDS011;60471;52.150;4.508;2023-08-06T02:26:03;16.52;;;10.98;;
72464;SDS011;60471;52.150;4.508;2023-08-06T02:28:31;18.13;;;10.82;;
72464;SDS011;60471;52.150;4.508;2023-08-06T02:30:58;18.63;;;11.55;;
72464;SDS011;60471;52.150;4.508;2023-08-06T02:33:24;22.42;;;13.35;;
72464;SDS011;60471;52.150;4.508;2023-08-06T02:35:50;17.10;;;11.02;;
72464;SDS011;60471;52.150;4.508;2023-08-06T02:38:17;14.98;;;9.95;;
72464;SDS011;60471;52.150;4.508;2023-08-06T02:40:43;13.15;;;9.15;;
72464;SDS011;60471;52.150;4.508;2023-08-06T02:43:11;17.15;;;10.50;;
72464;SDS011;60471;52.150;4.508;2023-08-06T02:45:38;14.15;;;9.27;;
72464;SDS011;60471;52.150;4.508;2023-08-06T02:48:04;17.83;;;10.35;;
72464;SDS011;60471;52.150;4.508;2023-08-06T02:50:37;17.45;;;10.15;;
72464;SDS011;60471;52.150;4.508;2023-08-06T02:53:05;12.85;;;7.63;;
72464;SDS011;60471;52.150;4.508;2023-08-06T02:55:33;12.48;;;7.32;;
72464;SDS011;60471;52.150;4.508;2023-08-06T02:58:01;12.50;;;7.85;;
72464;SDS011;60471;52.150;4.508;2023-08-06T03:00:28;12.85;;;7.72;;
72464;SDS011;60471;52.150;4.508;2023-08-06T03:02:54;11.63;;;8.10;;
72464;SDS011;60471;52.150;4.508;2023-08-06T03:05:20;14.57;;;9.63;;
72464;SDS011;60471;52.150;4.508;2023-08-06T03:07:47;14.55;;;9.77;;
72464;SDS011;60471;52.150;4.508;2023-08-06T03:10:13;14.98;;;9.95;;
72464;SDS011;60471;52.150;4.508;2023-08-06T03:12:39;13.48;;;9.00;;
72464;SDS011;60471;52.150;4.508;2023-08-06T03:15:05;14.07;;;9.73;;
72464;SDS011;60471;52.150;4.508;2023-08-06T03:17:32;15.48;;;9.82;;
72464;SDS011;60471;52.150;4.508;2023-08-06T03:19:58;16.50;;;11.10;;
72464;SDS011;60471;52.150;4.508;2023-08-06T03:22:25;16.45;;;11.43;;
72464;SDS011;60471;52.150;4.508;2023-08-06T03:24:51;18.67;;;14.40;;
72464;SDS011;60471;52.150;4.508;2023-08-06T03:27:17;20.85;;;15.48;;
72464;SDS011;60471;52.150;4.508;2023-08-06T03:29:43;23.05;;;15.77;;
72464;SDS011;60471;52.150;4.508;2023-08-06T03:32:10;19.55;;;14.77;;
72464;SDS011;60471;52.150;4.508;2023-08-06T03:34:36;18.10;;;12.57;;
72464;SDS011;60471;52.150;4.508;2023-08-06T03:37:02;16.88;;;9.77;;
72464;SDS011;60471;52.150;4.508;2023-08-06T03:39:28;12.90;;;4.93;;
72464;SDS011;60471;52.150;4.508;2023-08-06T03:41:55;10.88;;;4.63;;
72464;SDS011;60471;52.150;4.508;2023-08-06T03:44:21;10.60;;;3.78;;
72464;SDS011;60471;52.150;4.508;2023-08-06T03:46:47;17.25;;;4.32;;
72464;SDS011;60471;52.150;4.508;2023-08-06T03:49:13;14.32;;;4.07;;
72464;SDS011;60471;52.150;4.508;2023-08-06T03:51:40;11.90;;;3.80;;
72464;SDS011;60471;52.150;4.508;2023-08-06T03:54:06;13.90;;;3.80;;
72464;SDS011;60471;52.150;4.508;2023-08-06T03:56:32;11.25;;;3.55;;
72464;SDS011;60471;52.150;4.508;2023-08-06T03:58:58;12.60;;;3.50;;
72464;SDS011;60471;52.150;4.508;2023-08-06T04:01:28;12.30;;;3.90;;
72464;SDS011;60471;52.150;4.508;2023-08-06T04:03:54;12.32;;;4.43;;
72464;SDS011;60471;52.150;4.508;2023-08-06T04:06:20;11.88;;;4.00;;
72464;SDS011;60471;52.150;4.508;2023-08-06T04:08:46;12.38;;;3.80;;
72464;SDS011;60471;52.150;4.508;2023-08-06T04:11:12;13.70;;;3.95;;
72464;SDS011;60471;52.150;4.508;2023-08-06T04:13:42;11.65;;;4.28;;
72464;SDS011;60471;52.150;4.508;2023-08-06T04:16:09;12.18;;;3.92;;
72464;SDS011;60471;52.150;4.508;2023-08-06T04:18:36;12.68;;;3.83;;
72464;SDS011;60471;52.150;4.508;2023-08-06T04:21:02;11.93;;;4.05;;
72464;SDS011;60471;52.150;4.508;2023-08-06T04:23:29;10.68;;;3.90;;
72464;SDS011;60471;52.150;4.508;2023-08-06T04:25:58;9.75;;;4.00;;
72464;SDS011;60471;52.150;4.508;2023-08-06T04:28:24;11.23;;;3.95;;
72464;SDS011;60471;52.150;4.508;2023-08-06T04:30:50;10.75;;;3.38;;
72464;SDS011;60471;52.150;4.508;2023-08-06T04:33:22;9.60;;;4.03;;
72464;SDS011;60471;52.150;4.508;2023-08-06T04:35:53;13.95;;;3.78;;
72464;SDS011;60471;52.150;4.508;2023-08-06T04:38:22;11.05;;;3.63;;
72464;SDS011;60471;52.150;4.508;2023-08-06T04:40:53;10.05;;;3.97;;
72464;SDS011;60471;52.150;4.508;2023-08-06T04:43:19;15.02;;;4.10;;
72464;SDS011;60471;52.150;4.508;2023-08-06T04:45:49;11.68;;;3.78;;
72464;SDS011;60471;52.150;4.508;2023-08-06T04:48:19;15.20;;;3.97;;
72464;SDS011;60471;52.150;4.508;2023-08-06T04:50:49;16.67;;;4.10;;
72464;SDS011;60471;52.150;4.508;2023-08-06T04:53:16;12.48;;;3.92;;
72464;SDS011;60471;52.150;4.508;2023-08-06T04:55:43;12.38;;;4.20;;
72464;SDS011;60471;52.150;4.508;2023-08-06T04:58:09;14.93;;;4.32;;
72464;SDS011;60471;52.150;4.508;2023-08-06T05:00:36;12.50;;;4.13;;
72464;SDS011;60471;52.150;4.508;2023-08-06T05:03:02;8.98;;;3.85;;
72464;SDS011;60471;52.150;4.508;2023-08-06T05:05:29;11.43;;;3.67;;
72464;SDS011;60471;52.150;4.508;2023-08-06T05:07:56;12.43;;;4.72;;
72464;SDS011;60471;52.150;4.508;2023-08-06T05:10:26;10.80;;;3.97;;
72464;SDS011;60471;52.150;4.508;2023-08-06T05:12:53;11.05;;;3.95;;
72464;SDS011;60471;52.150;4.508;2023-08-06T05:15:20;11.68;;;4.28;;
72464;SDS011;60471;52.150;4.508;2023-08-06T05:17:46;12.77;;;4.50;;
72464;SDS011;60471;52.150;4.508;2023-08-06T05:20:12;14.20;;;4.32;;
72464;SDS011;60471;52.150;4.508;2023-08-06T05:22:39;10.10;;;4.07;;
72464;SDS011;60471;52.150;4.508;2023-08-06T05:25:05;11.57;;;3.55;;
72464;SDS011;60471;52.150;4.508;2023-08-06T05:27:32;10.73;;;3.92;;
72464;SDS011;60471;52.150;4.508;2023-08-06T05:29:58;10.02;;;3.72;;
72464;SDS011;60471;52.150;4.508;2023-08-06T05:32:24;11.85;;;3.72;;
72464;SDS011;60471;52.150;4.508;2023-08-06T05:34:51;12.93;;;3.72;;
72464;SDS011;60471;52.150;4.508;2023-08-06T05:37:17;10.75;;;3.58;;
72464;SDS011;60471;52.150;4.508;2023-08-06T05:39:43;11.55;;;3.85;;
72464;SDS011;60471;52.150;4.508;2023-08-06T05:42:09;11.10;;;4.00;;
72464;SDS011;60471;52.150;4.508;2023-08-06T05:44:35;10.25;;;4.20;;
72464;SDS011;60471;52.150;4.508;2023-08-06T05:47:02;11.38;;;4.00;;
72464;SDS011;60471;52.150;4.508;2023-08-06T05:49:28;11.98;;;4.22;;
72464;SDS011;60471;52.150;4.508;2023-08-06T05:51:54;12.75;;;4.35;;
72464;SDS011;60471;52.150;4.508;2023-08-06T05:54:20;11.70;;;3.90;;
72464;SDS011;60471;52.150;4.508;2023-08-06T05:56:47;10.48;;;4.15;;
72464;SDS011;60471;52.150;4.508;2023-08-06T05:59:13;11.20;;;3.50;;
72464;SDS011;60471;52.150;4.508;2023-08-06T06:01:39;12.25;;;3.60;;
72464;SDS011;60471;52.150;4.508;2023-08-06T06:04:05;10.40;;;3.28;;
72464;SDS011;60471;52.150;4.508;2023-08-06T06:06:31;8.73;;;2.60;;
72464;SDS011;60471;52.150;4.508;2023-08-06T06:08:58;9.20;;;2.85;;
72464;SDS011;60471;52.150;4.508;2023-08-06T06:11:24;9.65;;;3.00;;
72464;SDS011;60471;52.150;4.508;2023-08-06T06:13:50;9.48;;;2.70;;
72464;SDS011;60471;52.150;4.508;2023-08-06T06:16:17;11.00;;;2.92;;
72464;SDS011;60471;52.150;4.508;2023-08-06T06:18:44;9.88;;;2.72;;
72464;SDS011;60471;52.150;4.508;2023-08-06T06:21:10;8.68;;;2.50;;
72464;SDS011;60471;52.150;4.508;2023-08-06T06:23:36;9.88;;;2.63;;
72464;SDS011;60471;52.150;4.508;2023-08-06T06:26:03;7.95;;;2.20;;
72464;SDS011;60471;52.150;4.508;2023-08-06T06:28:29;8.98;;;2.30;;
72464;SDS011;60471;52.150;4.508;2023-08-06T06:30:59;10.55;;;2.15;;
72464;SDS011;60471;52.150;4.508;2023-08-06T06:33:27;9.38;;;1.88;;
72464;SDS011;60471;52.150;4.508;2023-08-06T06:35:53;7.30;;;2.00;;
72464;SDS011;60471;52.150;4.508;2023-08-06T06:38:20;7.60;;;2.00;;
72464;SDS011;60471;52.150;4.508;2023-08-06T06:40:55;7.55;;;1.83;;
72464;SDS011;60471;52.150;4.508;2023-08-06T06:43:22;7.65;;;1.60;;
72464;SDS011;60471;52.150;4.508;2023-08-06T06:45:53;9.93;;;1.90;;
72464;SDS011;60471;52.150;4.508;2023-08-06T06:48:26;9.23;;;1.90;;
72464;SDS011;60471;52.150;4.508;2023-08-06T06:50:54;8.60;;;1.70;;
72464;SDS011;60471;52.150;4.508;2023-08-06T06:53:21;9.38;;;1.80;;
72464;SDS011;60471;52.150;4.508;2023-08-06T06:55:54;11.23;;;1.88;;
72464;SDS011;60471;52.150;4.508;2023-08-06T06:58:21;8.60;;;2.15;;
72464;SDS011;60471;52.150;4.508;2023-08-06T07:00:48;11.65;;;2.17;;
72464;SDS011;60471;52.150;4.508;2023-08-06T07:03:15;7.97;;;2.05;;
72464;SDS011;60471;52.150;4.508;2023-08-06T07:05:41;10.43;;;1.83;;
72464;SDS011;60471;52.150;4.508;2023-08-06T07:08:09;7.75;;;1.90;;
72464;SDS011;60471;52.150;4.508;2023-08-06T07:10:36;7.35;;;2.00;;
72464;SDS011;60471;52.150;4.508;2023-08-06T07:13:02;11.48;;;2.28;;
72464;SDS011;60471;52.150;4.508;2023-08-06T07:15:28;9.73;;;1.83;;
72464;SDS011;60471;52.150;4.508;2023-08-06T07:17:55;8.70;;;1.80;;
72464;SDS011;60471;52.150;4.508;2023-08-06T07:20:21;7.38;;;2.00;;
72464;SDS011;60471;52.150;4.508;2023-08-06T07:22:47;9.55;;;1.60;;
72464;SDS011;60471;52.150;4.508;2023-08-06T07:25:13;7.95;;;1.83;;
72464;SDS011;60471;52.150;4.508;2023-08-06T07:27:40;10.07;;;2.08;;
72464;SDS011;60471;52.150;4.508;2023-08-06T07:30:06;12.05;;;1.88;;
72464;SDS011;60471;52.150;4.508;2023-08-06T07:32:33;10.43;;;1.65;;
72464;SDS011;60471;52.150;4.508;2023-08-06T07:35:00;7.25;;;1.98;;
72464;SDS011;60471;52.150;4.508;2023-08-06T07:37:26;9.50;;;1.90;;
72464;SDS011;60471;52.150;4.508;2023-08-06T07:39:56;6.80;;;1.60;;
72464;SDS011;60471;52.150;4.508;2023-08-06T07:42:22;9.07;;;2.00;;
72464;SDS011;60471;52.150;4.508;2023-08-06T07:44:54;7.20;;;1.80;;
72464;SDS011;60471;52.150;4.508;2023-08-06T07:47:22;5.55;;;1.60;;
72464;SDS011;60471;52.150;4.508;2023-08-06T07:49:48;9.40;;;1.77;;
72464;SDS011;60471;52.150;4.508;2023-08-06T07:52:14;7.78;;;1.70;;
72464;SDS011;60471;52.150;4.508;2023-08-06T07:54:41;11.23;;;1.77;;
72464;SDS011;60471;52.150;4.508;2023-08-06T07:57:07;9.35;;;1.90;;
72464;SDS011;60471;52.150;4.508;2023-08-06T07:59:33;5.93;;;1.73;;
72464;SDS011;60471;52.150;4.508;2023-08-06T08:02:02;5.72;;;1.60;;
72464;SDS011;60471;52.150;4.508;2023-08-06T08:04:31;7.43;;;1.77;;
72464;SDS011;60471;52.150;4.508;2023-08-06T08:06:57;10.02;;;2.17;;
72464;SDS011;60471;52.150;4.508;2023-08-06T08:09:23;10.00;;;1.77;;
72464;SDS011;60471;52.150;4.508;2023-08-06T08:11:50;8.40;;;1.80;;
72464;SDS011;60471;52.150;4.508;2023-08-06T08:14:16;7.65;;;1.92;;
72464;SDS011;60471;52.150;4.508;2023-08-06T08:16:42;7.82;;;2.00;;
72464;SDS011;60471;52.150;4.508;2023-08-06T08:19:08;8.45;;;1.63;;
72464;SDS011;60471;52.150;4.508;2023-08-06T08:21:35;8.63;;;2.00;;
72464;SDS011;60471;52.150;4.508;2023-08-06T08:24:01;8.93;;;2.50;;
72464;SDS011;60471;52.150;4.508;2023-08-06T08:26:29;7.38;;;1.80;;
72464;SDS011;60471;52.150;4.508;2023-08-06T08:28:56;9.15;;;1.92;;
72464;SDS011;60471;52.150;4.508;2023-08-06T08:31:22;8.05;;;1.92;;
72464;SDS011;60471;52.150;4.508;2023-08-06T08:33:49;7.45;;;2.08;;
72464;SDS011;60471;52.150;4.508;2023-08-06T08:36:15;6.47;;;2.00;;
72464;SDS011;60471;52.150;4.508;2023-08-06T08:38:41;9.90;;;2.30;;
72464;SDS011;60471;52.150;4.508;2023-08-06T08:41:09;8.75;;;2.20;;
72464;SDS011;60471;52.150;4.508;2023-08-06T08:43:36;11.07;;;2.75;;
72464;SDS011;60471;52.150;4.508;2023-08-06T08:46:05;8.32;;;2.20;;
72464;SDS011;60471;52.150;4.508;2023-08-06T08:48:37;10.27;;;2.33;;
72464;SDS011;60471;52.150;4.508;2023-08-06T08:51:03;8.40;;;2.00;;
72464;SDS011;60471;52.150;4.508;2023-08-06T08:53:32;12.10;;;2.20;;
72464;SDS011;60471;52.150;4.508;2023-08-06T08:56:00;8.93;;;2.17;;
72464;SDS011;60471;52.150;4.508;2023-08-06T08:58:27;9.80;;;2.35;;
72464;SDS011;60471;52.150;4.508;2023-08-06T09:00:53;7.75;;;2.00;;
72464;SDS011;60471;52.150;4.508;2023-08-06T09:03:20;9.82;;;2.33;;
72464;SDS011;60471;52.150;4.508;2023-08-06T09:05:48;8.88;;;1.80;;
72464;SDS011;60471;52.150;4.508;2023-08-06T09:08:19;8.05;;;1.90;;
72464;SDS011;60471;52.150;4.508;2023-08-06T09:10:56;8.48;;;2.10;;
72464;SDS011;60471;52.150;4.508;2023-08-06T09:13:23;12.60;;;2.70;;
72464;SDS011;60471;52.150;4.508;2023-08-06T09:15:49;7.88;;;1.95;;
72464;SDS011;60471;52.150;4.508;2023-08-06T09:18:21;8.95;;;1.95;;
72464;SDS011;60471;52.150;4.508;2023-08-06T09:20:55;5.75;;;1.58;;
72464;SDS011;60471;52.150;4.508;2023-08-06T09:23:29;7.90;;;2.17;;
72464;SDS011;60471;52.150;4.508;2023-08-06T09:25:57;10.27;;;2.10;;
72464;SDS011;60471;52.150;4.508;2023-08-06T09:28:24;8.73;;;2.13;;
72464;SDS011;60471;52.150;4.508;2023-08-06T09:30:50;8.82;;;1.92;;
72464;SDS011;60471;52.150;4.508;2023-08-06T09:33:22;12.02;;;2.00;;
72464;SDS011;60471;52.150;4.508;2023-08-06T09:35:49;11.00;;;1.67;;
72464;SDS011;60471;52.150;4.508;2023-08-06T09:38:15;6.50;;;1.60;;
72464;SDS011;60471;52.150;4.508;2023-08-06T09:40:41;7.40;;;1.60;;
72464;SDS011;60471;52.150;4.508;2023-08-06T09:43:07;5.20;;;1.50;;
72464;SDS011;60471;52.150;4.508;2023-08-06T09:45:34;5.85;;;1.60;;
72464;SDS011;60471;52.150;4.508;2023-08-06T09:48:07;5.88;;;1.40;;
72464;SDS011;60471;52.150;4.508;2023-08-06T09:50:35;7.85;;;1.95;;
72464;SDS011;60471;52.150;4.508;2023-08-06T09:53:04;6.35;;;1.70;;
72464;SDS011;60471;52.150;4.508;2023-08-06T09:55:33;8.35;;;1.40;;
72464;SDS011;60471;52.150;4.508;2023-08-06T09:58:00;7.88;;;1.60;;
72464;SDS011;60471;52.150;4.508;2023-08-06T10:00:26;6.30;;;1.63;;
72464;SDS011;60471;52.150;4.508;2023-08-06T10:02:54;8.55;;;1.60;;
72464;SDS011;60471;52.150;4.508;2023-08-06T10:05:25;6.40;;;1.65;;
72464;SDS011;60471;52.150;4.508;2023-08-06T10:07:53;7.60;;;1.63;;
72464;SDS011;60471;52.150;4.508;2023-08-06T10:10:22;7.38;;;1.95;;
72464;SDS011;60471;52.150;4.508;2023-08-06T10:12:52;6.88;;;1.63;;
72464;SDS011;60471;52.150;4.508;2023-08-06T10:15:24;7.85;;;1.95;;
72464;SDS011;60471;52.150;4.508;2023-08-06T10:17:56;8.55;;;1.58;;
72464;SDS011;60471;52.150;4.508;2023-08-06T10:20:25;7.72;;;1.90;;
72464;SDS011;60471;52.150;4.508;2023-08-06T10:23:01;6.68;;;1.52;;
72464;SDS011;60471;52.150;4.508;2023-08-06T10:25:30;5.30;;;1.50;;
72464;SDS011;60471;52.150;4.508;2023-08-06T10:28:08;5.95;;;1.30;;
72464;SDS011;60471;52.150;4.508;2023-08-06T10:30:41;5.43;;;1.48;;
72464;SDS011;60471;52.150;4.508;2023-08-06T10:33:10;8.10;;;1.70;;
72464;SDS011;60471;52.150;4.508;2023-08-06T10:38:12;6.00;;;1.55;;
72464;SDS011;60471;52.150;4.508;2023-08-06T10:40:42;7.22;;;1.85;;
72464;SDS011;60471;52.150;4.508;2023-08-06T10:43:35;7.45;;;1.40;;
72464;SDS011;60471;52.150;4.508;2023-08-06T10:46:21;7.75;;;1.60;;
72464;SDS011;60471;52.150;4.508;2023-08-06T10:48:52;9.68;;;1.80;;
72464;SDS011;60471;52.150;4.508;2023-08-06T10:51:19;5.90;;;1.58;;
72464;SDS011;60471;52.150;4.508;2023-08-06T10:53:45;7.60;;;1.60;;
72464;SDS011;60471;52.150;4.508;2023-08-06T10:56:16;6.90;;;1.90;;
72464;SDS011;60471;52.150;4.508;2023-08-06T10:58:53;9.02;;;1.65;;
72464;SDS011;60471;52.150;4.508;2023-08-06T11:01:26;7.00;;;1.60;;
72464;SDS011;60471;52.150;4.508;2023-08-06T11:04:00;5.68;;;1.40;;
72464;SDS011;60471;52.150;4.508;2023-08-06T11:06:28;7.57;;;1.85;;
72464;SDS011;60471;52.150;4.508;2023-08-06T11:08:54;9.52;;;1.63;;
72464;SDS011;60471;52.150;4.508;2023-08-06T11:11:22;4.88;;;1.48;;
72464;SDS011;60471;52.150;4.508;2023-08-06T11:13:50;6.93;;;1.50;;
72464;SDS011;60471;52.150;4.508;2023-08-06T11:16:18;7.32;;;1.50;;
72464;SDS011;60471;52.150;4.508;2023-08-06T11:18:50;6.05;;;1.50;;
72464;SDS011;60471;52.150;4.508;2023-08-06T11:21:19;9.10;;;1.60;;
72464;SDS011;60471;52.150;4.508;2023-08-06T11:23:47;8.60;;;1.70;;
72464;SDS011;60471;52.150;4.508;2023-08-06T11:26:18;6.30;;;1.55;;
72464;SDS011;60471;52.150;4.508;2023-08-06T11:28:53;5.78;;;1.35;;
72464;SDS011;60471;52.150;4.508;2023-08-06T11:31:22;7.43;;;1.60;;
72464;SDS011;60471;52.150;4.508;2023-08-06T11:33:53;5.22;;;1.20;;
72464;SDS011;60471;52.150;4.508;2023-08-06T11:36:30;7.05;;;1.35;;
72464;SDS011;60471;52.150;4.508;2023-08-06T11:38:58;7.47;;;1.33;;
72464;SDS011;60471;52.150;4.508;2023-08-06T11:41:27;4.60;;;1.05;;
72464;SDS011;60471;52.150;4.508;2023-08-06T11:43:55;4.80;;;1.05;;
72464;SDS011;60471;52.150;4.508;2023-08-06T11:46:21;3.05;;;0.85;;
72464;SDS011;60471;52.150;4.508;2023-08-06T11:48:55;4.07;;;0.90;;
72464;SDS011;60471;52.150;4.508;2023-08-06T11:51:23;7.70;;;1.38;;
72464;SDS011;60471;52.150;4.508;2023-08-06T11:53:56;6.95;;;1.40;;
72464;SDS011;60471;52.150;4.508;2023-08-06T11:56:26;4.10;;;1.15;;
72464;SDS011;60471;52.150;4.508;2023-08-06T11:58:54;5.30;;;1.13;;
72464;SDS011;60471;52.150;4.508;2023-08-06T12:01:21;5.07;;;1.10;;
72464;SDS011;60471;52.150;4.508;2023-08-06T12:03:47;4.32;;;0.98;;
72464;SDS011;60471;52.150;4.508;2023-08-06T12:06:13;5.38;;;1.10;;
72464;SDS011;60471;52.150;4.508;2023-08-06T12:08:40;7.20;;;1.23;;
72464;SDS011;60471;52.150;4.508;2023-08-06T12:11:07;3.47;;;0.90;;
72464;SDS011;60471;52.150;4.508;2023-08-06T12:13:34;6.28;;;0.88;;
72464;SDS011;60471;52.150;4.508;2023-08-06T12:16:00;6.93;;;1.23;;
72464;SDS011;60471;52.150;4.508;2023-08-06T12:18:27;5.53;;;1.17;;
72464;SDS011;60471;52.150;4.508;2023-08-06T12:20:53;6.43;;;1.10;;
72464;SDS011;60471;52.150;4.508;2023-08-06T12:23:19;2.60;;;0.88;;
72464;SDS011;60471;52.150;4.508;2023-08-06T12:25:47;9.45;;;1.20;;
72464;SDS011;60471;52.150;4.508;2023-08-06T12:28:18;5.50;;;1.00;;
72464;SDS011;60471;52.150;4.508;2023-08-06T12:30:57;4.13;;;0.90;;
72464;SDS011;60471;52.150;4.508;2023-08-06T12:33:24;4.15;;;1.00;;
72464;SDS011;60471;52.150;4.508;2023-08-06T12:35:50;2.65;;;0.90;;
72464;SDS011;60471;52.150;4.508;2023-08-06T12:38:20;4.47;;;0.98;;
72464;SDS011;60471;52.150;4.508;2023-08-06T12:40:46;4.07;;;1.05;;
72464;SDS011;60471;52.150;4.508;2023-08-06T12:43:12;4.97;;;1.00;;
72464;SDS011;60471;52.150;4.508;2023-08-06T12:45:38;6.22;;;1.15;;
72464;SDS011;60471;52.150;4.508;2023-08-06T12:48:05;4.93;;;0.95;;
72464;SDS011;60471;52.150;4.508;2023-08-06T12:50:31;4.82;;;1.00;;
72464;SDS011;60471;52.150;4.508;2023-08-06T12:52:58;5.32;;;1.15;;
72464;SDS011;60471;52.150;4.508;2023-08-06T12:55:24;6.82;;;1.23;;
72464;SDS011;60471;52.150;4.508;2023-08-06T12:57:51;7.40;;;1.00;;
72464;SDS011;60471;52.150;4.508;2023-08-06T13:00:17;6.70;;;1.20;;
72464;SDS011;60471;52.150;4.508;2023-08-06T13:02:43;6.53;;;1.40;;
72464;SDS011;60471;52.150;4.508;2023-08-06T13:05:09;5.78;;;1.20;;
72464;SDS011;60471;52.150;4.508;2023-08-06T13:07:35;6.78;;;1.20;;
72464;SDS011;60471;52.150;4.508;2023-08-06T13:10:02;7.38;;;1.38;;
72464;SDS011;60471;52.150;4.508;2023-08-06T13:12:28;6.25;;;1.20;;
72464;SDS011;60471;52.150;4.508;2023-08-06T13:14:54;4.68;;;1.20;;
72464;SDS011;60471;52.150;4.508;2023-08-06T13:17:23;5.25;;;1.40;;
72464;SDS011;60471;52.150;4.508;2023-08-06T13:19:49;6.70;;;1.30;;
72464;SDS011;60471;52.150;4.508;2023-08-06T13:22:15;8.93;;;1.27;;
72464;SDS011;60471;52.150;4.508;2023-08-06T13:24:42;6.85;;;1.10;;
72464;SDS011;60471;52.150;4.508;2023-08-06T13:27:08;8.63;;;1.30;;
72464;SDS011;60471;52.150;4.508;2023-08-06T13:29:35;10.00;;;1.90;;
72464;SDS011;60471;52.150;4.508;2023-08-06T13:32:01;15.43;;;2.15;;
72464;SDS011;60471;52.150;4.508;2023-08-06T13:34:28;17.95;;;1.83;;
72464;SDS011;60471;52.150;4.508;2023-08-06T13:36:54;12.38;;;1.88;;
72464;SDS011;60471;52.150;4.508;2023-08-06T13:39:20;11.07;;;1.88;;
72464;SDS011;60471;52.150;4.508;2023-08-06T13:41:46;12.45;;;2.10;;
72464;SDS011;60471;52.150;4.508;2023-08-06T13:44:13;15.40;;;2.08;;
72464;SDS011;60471;52.150;4.508;2023-08-06T13:46:40;11.93;;;2.00;;
72464;SDS011;60471;52.150;4.508;2023-08-06T13:49:07;13.70;;;1.83;;
72464;SDS011;60471;52.150;4.508;2023-08-06T13:51:35;15.02;;;2.28;;
72464;SDS011;60471;52.150;4.508;2023-08-06T13:54:01;15.68;;;1.60;;
72464;SDS011;60471;52.150;4.508;2023-08-06T13:56:28;10.00;;;1.42;;
72464;SDS011;60471;52.150;4.508;2023-08-06T13:58:55;17.35;;;1.90;;
72464;SDS011;60471;52.150;4.508;2023-08-06T14:01:23;10.60;;;1.98;;
72464;SDS011;60471;52.150;4.508;2023-08-06T14:03:50;10.23;;;1.85;;
72464;SDS011;60471;52.150;4.508;2023-08-06T14:06:16;12.85;;;2.00;;
72464;SDS011;60471;52.150;4.508;2023-08-06T14:08:42;12.07;;;1.83;;
72464;SDS011;60471;52.150;4.508;2023-08-06T14:11:08;9.18;;;1.55;;
72464;SDS011;60471;52.150;4.508;2023-08-06T14:13:36;8.95;;;1.63;;
72464;SDS011;60471;52.150;4.508;2023-08-06T14:16:02;8.35;;;1.70;;
72464;SDS011;60471;52.150;4.508;2023-08-06T14:18:29;13.52;;;2.03;;
72464;SDS011;60471;52.150;4.508;2023-08-06T14:20:55;14.65;;;2.03;;
72464;SDS011;60471;52.150;4.508;2023-08-06T14:23:21;14.68;;;2.60;;
72464;SDS011;60471;52.150;4.508;2023-08-06T14:25:47;10.93;;;2.15;;
72464;SDS011;60471;52.150;4.508;2023-08-06T14:28:26;14.90;;;2.10;;
72464;SDS011;60471;52.150;4.508;2023-08-06T14:31:08;17.17;;;2.67;;
72464;SDS011;60471;52.150;4.508;2023-08-06T14:33:46;12.07;;;2.20;;
72464;SDS011;60471;52.150;4.508;2023-08-06T14:36:12;18.45;;;2.70;;
72464;SDS011;60471;52.150;4.508;2023-08-06T14:38:38;18.77;;;2.35;;
72464;SDS011;60471;52.150;4.508;2023-08-06T14:41:04;12.48;;;2.28;;
72464;SDS011;60471;52.150;4.508;2023-08-06T14:43:32;14.82;;;2.30;;
72464;SDS011;60471;52.150;4.508;2023-08-06T14:45:58;15.95;;;2.28;;
72464;SDS011;60471;52.150;4.508;2023-08-06T14:48:24;15.52;;;2.75;;
72464;SDS011;60471;52.150;4.508;2023-08-06T14:50:53;11.80;;;2.00;;
72464;SDS011;60471;52.150;4.508;2023-08-06T14:53:20;12.88;;;2.03;;